sensor_id;sensor_type;location;lat;lon;timestamp;P1;durP1;ratioP1;P2;durP2;ratioP2
13672;SDS011;6909;52.202;9.876;2023-03-01T00:01:25;5.60;;;1.97;;
13672;SDS011;6909;52.202;9.876;2023-03-01T00:03:54;3.77;;;2.30;;
13672;SDS011;6909;52.202;9.876;2023-03-01T00:06:21;5.07;;;2.37;;
13672;SDS011;6909;52.202;9.876;2023-03-01T00:08:49;6.47;;;2.37;;
13672;SDS011;6909;52.202;9.876;2023-03-01T00:11:18;3.37;;;2.07;;
13672;SDS011;6909;52.202;9.876;2023-03-01T00:13:47;4.47;;;1.43;;
13672;SDS011;6909;52.202;9.876;2023-03-01T00:16:16;7.63;;;2.47;;
13672;SDS011;6909;52.202;9.876;2023-03-01T00:18:45;2.40;;;1.93;;
13672;SDS011;6909;52.202;9.876;2023-03-01T00:21:12;4.97;;;2.80;;
13672;SDS011;6909;52.202;9.876;2023-03-01T00:23:39;3.80;;;2.63;;
13672;SDS011;6909;52.202;9.876;2023-03-01T00:26:06;7.10;;;2.83;;
13672;SDS011;6909;52.202;9.876;2023-03-01T00:28:35;2.73;;;1.77;;
13672;SDS011;6909;52.202;9.876;2023-03-01T00:31:03;1.50;;;1.40;;
13672;SDS011;6909;52.202;9.876;2023-03-01T00:33:30;2.07;;;1.73;;
13672;SDS011;6909;52.202;9.876;2023-03-01T00:35:57;2.20;;;1.90;;
13672;SDS011;6909;52.202;9.876;2023-03-01T00:38:24;7.57;;;2.10;;
13672;SDS011;6909;52.202;9.876;2023-03-01T00:40:50;4.70;;;3.53;;
13672;SDS011;6909;52.202;9.876;2023-03-01T00:43:17;2.43;;;1.70;;
13672;SDS011;6909;52.202;9.876;2023-03-01T00:45:45;1.77;;;1.67;;
13672;SDS011;6909;52.202;9.876;2023-03-01T00:48:12;1.93;;;1.73;;
13672;SDS011;6909;52.202;9.876;2023-03-01T00:50:38;3.33;;;2.40;;
13672;SDS011;6909;52.202;9.876;2023-03-01T00:53:05;3.50;;;1.47;;
13672;SDS011;6909;52.202;9.876;2023-03-01T00:55:32;2.03;;;1.70;;
13672;SDS011;6909;52.202;9.876;2023-03-01T00:57:58;2.33;;;2.13;;
13672;SDS011;6909;52.202;9.876;2023-03-01T01:00:25;3.27;;;2.00;;
13672;SDS011;6909;52.202;9.876;2023-03-01T01:02:54;5.87;;;1.97;;
13672;SDS011;6909;52.202;9.876;2023-03-01T01:05:20;2.93;;;1.97;;
13672;SDS011;6909;52.202;9.876;2023-03-01T01:07:47;1.90;;;1.70;;
13672;SDS011;6909;52.202;9.876;2023-03-01T01:10:14;3.20;;;1.73;;
13672;SDS011;6909;52.202;9.876;2023-03-01T01:12:42;4.27;;;2.13;;
13672;SDS011;6909;52.202;9.876;2023-03-01T01:15:09;2.53;;;2.20;;
13672;SDS011;6909;52.202;9.876;2023-03-01T01:17:38;1.30;;;1.20;;
13672;SDS011;6909;52.202;9.876;2023-03-01T01:20:06;3.87;;;1.70;;
13672;SDS011;6909;52.202;9.876;2023-03-01T01:22:34;4.03;;;1.57;;
13672;SDS011;6909;52.202;9.876;2023-03-01T01:25:00;2.27;;;2.07;;
13672;SDS011;6909;52.202;9.876;2023-03-01T01:27:27;1.73;;;1.43;;
13672;SDS011;6909;52.202;9.876;2023-03-01T01:29:55;2.47;;;1.93;;
13672;SDS011;6909;52.202;9.876;2023-03-01T01:32:21;2.90;;;1.80;;
13672;SDS011;6909;52.202;9.876;2023-03-01T01:34:48;3.90;;;2.20;;
13672;SDS011;6909;52.202;9.876;2023-03-01T01:37:16;9.87;;;2.00;;
13672;SDS011;6909;52.202;9.876;2023-03-01T01:39:43;6.60;;;2.47;;
13672;SDS011;6909;52.202;9.876;2023-03-01T01:42:11;2.77;;;1.47;;
13672;SDS011;6909;52.202;9.876;2023-03-01T01:44:41;1.23;;;1.20;;
13672;SDS011;6909;52.202;9.876;2023-03-01T01:47:11;2.57;;;2.00;;
13672;SDS011;6909;52.202;9.876;2023-03-01T01:49:42;1.97;;;1.67;;
13672;SDS011;6909;52.202;9.876;2023-03-01T01:52:13;5.27;;;1.57;;
13672;SDS011;6909;52.202;9.876;2023-03-01T01:54:45;2.30;;;1.07;;
13672;SDS011;6909;52.202;9.876;2023-03-01T01:57:18;1.83;;;1.43;;
13672;SDS011;6909;52.202;9.876;2023-03-01T01:59:48;2.50;;;1.67;;
13672;SDS011;6909;52.202;9.876;2023-03-01T02:02:18;5.10;;;2.17;;
13672;SDS011;6909;52.202;9.876;2023-03-01T02:04:45;2.27;;;1.47;;
13672;SDS011;6909;52.202;9.876;2023-03-01T02:07:14;3.40;;;2.10;;
13672;SDS011;6909;52.202;9.876;2023-03-01T02:09:45;1.73;;;1.63;;
13672;SDS011;6909;52.202;9.876;2023-03-01T02:12:13;3.03;;;1.50;;
13672;SDS011;6909;52.202;9.876;2023-03-01T02:14:44;3.40;;;2.20;;
13672;SDS011;6909;52.202;9.876;2023-03-01T02:17:11;1.33;;;1.23;;
13672;SDS011;6909;52.202;9.876;2023-03-01T02:19:43;2.50;;;2.23;;
13672;SDS011;6909;52.202;9.876;2023-03-01T02:22:22;3.20;;;2.33;;
13672;SDS011;6909;52.202;9.876;2023-03-01T02:24:56;11.50;;;2.03;;
13672;SDS011;6909;52.202;9.876;2023-03-01T02:27:31;1.03;;;1.03;;
13672;SDS011;6909;52.202;9.876;2023-03-01T02:30:04;1.87;;;1.53;;
13672;SDS011;6909;52.202;9.876;2023-03-01T02:32:32;3.00;;;1.33;;
13672;SDS011;6909;52.202;9.876;2023-03-01T02:34:59;1.67;;;1.53;;
13672;SDS011;6909;52.202;9.876;2023-03-01T02:37:25;5.87;;;1.87;;
13672;SDS011;6909;52.202;9.876;2023-03-01T02:39:54;1.53;;;1.43;;
13672;SDS011;6909;52.202;9.876;2023-03-01T02:42:25;2.33;;;1.40;;
13672;SDS011;6909;52.202;9.876;2023-03-01T02:44:56;1.27;;;1.10;;
13672;SDS011;6909;52.202;9.876;2023-03-01T02:47:24;3.30;;;1.93;;
13672;SDS011;6909;52.202;9.876;2023-03-01T02:49:51;2.83;;;1.80;;
13672;SDS011;6909;52.202;9.876;2023-03-01T02:52:21;4.03;;;1.27;;
13672;SDS011;6909;52.202;9.876;2023-03-01T02:54:58;1.13;;;0.70;;
13672;SDS011;6909;52.202;9.876;2023-03-01T02:57:27;2.23;;;2.03;;
13672;SDS011;6909;52.202;9.876;2023-03-01T02:59:56;3.60;;;2.10;;
13672;SDS011;6909;52.202;9.876;2023-03-01T03:02:27;3.07;;;1.80;;
13672;SDS011;6909;52.202;9.876;2023-03-01T03:05:03;0.60;;;0.60;;
13672;SDS011;6909;52.202;9.876;2023-03-01T03:07:31;2.97;;;1.30;;
13672;SDS011;6909;52.202;9.876;2023-03-01T03:09:58;6.33;;;1.47;;
13672;SDS011;6909;52.202;9.876;2023-03-01T03:12:24;5.47;;;1.90;;
13672;SDS011;6909;52.202;9.876;2023-03-01T03:14:51;1.63;;;1.40;;
13672;SDS011;6909;52.202;9.876;2023-03-01T03:17:18;2.03;;;1.93;;
13672;SDS011;6909;52.202;9.876;2023-03-01T03:19:46;3.93;;;1.80;;
13672;SDS011;6909;52.202;9.876;2023-03-01T03:22:12;2.97;;;2.27;;
13672;SDS011;6909;52.202;9.876;2023-03-01T03:24:39;1.70;;;1.60;;
13672;SDS011;6909;52.202;9.876;2023-03-01T03:27:06;4.03;;;1.00;;
13672;SDS011;6909;52.202;9.876;2023-03-01T03:29:33;3.33;;;1.53;;
13672;SDS011;6909;52.202;9.876;2023-03-01T03:32:00;1.33;;;1.23;;
13672;SDS011;6909;52.202;9.876;2023-03-01T03:34:26;3.30;;;2.20;;
13672;SDS011;6909;52.202;9.876;2023-03-01T03:36:54;2.03;;;1.73;;
13672;SDS011;6909;52.202;9.876;2023-03-01T03:39:24;1.60;;;1.13;;
13672;SDS011;6909;52.202;9.876;2023-03-01T03:41:51;4.53;;;1.90;;
13672;SDS011;6909;52.202;9.876;2023-03-01T03:44:17;1.20;;;1.17;;
13672;SDS011;6909;52.202;9.876;2023-03-01T03:46:44;4.33;;;2.03;;
13672;SDS011;6909;52.202;9.876;2023-03-01T03:49:11;4.07;;;1.63;;
13672;SDS011;6909;52.202;9.876;2023-03-01T03:51:40;0.93;;;0.93;;
13672;SDS011;6909;52.202;9.876;2023-03-01T03:54:08;1.97;;;1.30;;
13672;SDS011;6909;52.202;9.876;2023-03-01T03:56:36;7.50;;;2.10;;
13672;SDS011;6909;52.202;9.876;2023-03-01T03:59:02;3.83;;;1.53;;
13672;SDS011;6909;52.202;9.876;2023-03-01T04:01:30;1.90;;;1.30;;
13672;SDS011;6909;52.202;9.876;2023-03-01T04:03:57;5.80;;;2.00;;
13672;SDS011;6909;52.202;9.876;2023-03-01T04:06:28;2.20;;;1.53;;
13672;SDS011;6909;52.202;9.876;2023-03-01T04:08:55;2.27;;;1.40;;
13672;SDS011;6909;52.202;9.876;2023-03-01T04:11:24;3.27;;;2.17;;
13672;SDS011;6909;52.202;9.876;2023-03-01T04:13:54;2.60;;;2.40;;
13672;SDS011;6909;52.202;9.876;2023-03-01T04:16:22;1.87;;;1.70;;
13672;SDS011;6909;52.202;9.876;2023-03-01T04:18:49;1.13;;;1.03;;
13672;SDS011;6909;52.202;9.876;2023-03-01T04:21:18;1.97;;;1.87;;
13672;SDS011;6909;52.202;9.876;2023-03-01T04:23:45;1.57;;;1.30;;
13672;SDS011;6909;52.202;9.876;2023-03-01T04:26:12;3.53;;;2.47;;
13672;SDS011;6909;52.202;9.876;2023-03-01T04:28:40;2.07;;;1.80;;
13672;SDS011;6909;52.202;9.876;2023-03-01T04:31:10;3.40;;;2.13;;
13672;SDS011;6909;52.202;9.876;2023-03-01T04:33:39;2.70;;;1.37;;
13672;SDS011;6909;52.202;9.876;2023-03-01T04:36:06;2.57;;;1.27;;
13672;SDS011;6909;52.202;9.876;2023-03-01T04:38:34;1.10;;;1.10;;
13672;SDS011;6909;52.202;9.876;2023-03-01T04:41:02;7.03;;;1.57;;
13672;SDS011;6909;52.202;9.876;2023-03-01T04:43:29;2.17;;;1.53;;
13672;SDS011;6909;52.202;9.876;2023-03-01T04:46:00;3.03;;;2.50;;
13672;SDS011;6909;52.202;9.876;2023-03-01T04:48:28;2.53;;;2.33;;
13672;SDS011;6909;52.202;9.876;2023-03-01T04:50:55;2.30;;;1.73;;
13672;SDS011;6909;52.202;9.876;2023-03-01T04:53:22;1.57;;;1.07;;
13672;SDS011;6909;52.202;9.876;2023-03-01T04:55:49;3.90;;;2.80;;
13672;SDS011;6909;52.202;9.876;2023-03-01T04:58:16;7.90;;;2.60;;
13672;SDS011;6909;52.202;9.876;2023-03-01T05:00:43;3.23;;;2.10;;
13672;SDS011;6909;52.202;9.876;2023-03-01T05:03:10;1.10;;;1.03;;
13672;SDS011;6909;52.202;9.876;2023-03-01T05:05:37;4.10;;;3.63;;
13672;SDS011;6909;52.202;9.876;2023-03-01T05:08:05;4.73;;;3.30;;
13672;SDS011;6909;52.202;9.876;2023-03-01T05:10:34;4.10;;;2.47;;
13672;SDS011;6909;52.202;9.876;2023-03-01T05:13:03;2.47;;;2.27;;
13672;SDS011;6909;52.202;9.876;2023-03-01T05:15:31;3.27;;;2.63;;
13672;SDS011;6909;52.202;9.876;2023-03-01T05:17:58;1.83;;;1.73;;
13672;SDS011;6909;52.202;9.876;2023-03-01T05:20:27;4.27;;;1.73;;
13672;SDS011;6909;52.202;9.876;2023-03-01T05:22:55;2.30;;;2.03;;
13672;SDS011;6909;52.202;9.876;2023-03-01T05:25:23;1.93;;;1.83;;
13672;SDS011;6909;52.202;9.876;2023-03-01T05:27:50;2.00;;;1.67;;
13672;SDS011;6909;52.202;9.876;2023-03-01T05:30:17;1.77;;;1.53;;
13672;SDS011;6909;52.202;9.876;2023-03-01T05:32:45;4.37;;;1.80;;
13672;SDS011;6909;52.202;9.876;2023-03-01T05:35:13;4.13;;;1.77;;
13672;SDS011;6909;52.202;9.876;2023-03-01T05:37:43;1.17;;;1.17;;
13672;SDS011;6909;52.202;9.876;2023-03-01T05:40:14;2.77;;;1.03;;
13672;SDS011;6909;52.202;9.876;2023-03-01T05:42:43;3.90;;;2.33;;
13672;SDS011;6909;52.202;9.876;2023-03-01T05:45:10;1.53;;;1.43;;
13672;SDS011;6909;52.202;9.876;2023-03-01T05:47:38;3.43;;;2.20;;
13672;SDS011;6909;52.202;9.876;2023-03-01T05:50:08;4.27;;;1.43;;
13672;SDS011;6909;52.202;9.876;2023-03-01T05:52:36;6.07;;;2.50;;
13672;SDS011;6909;52.202;9.876;2023-03-01T05:55:05;1.10;;;1.10;;
13672;SDS011;6909;52.202;9.876;2023-03-01T05:57:33;3.87;;;2.20;;
13672;SDS011;6909;52.202;9.876;2023-03-01T05:59:59;2.30;;;2.13;;
13672;SDS011;6909;52.202;9.876;2023-03-01T06:02:26;2.77;;;2.10;;
13672;SDS011;6909;52.202;9.876;2023-03-01T06:04:54;2.00;;;1.80;;
13672;SDS011;6909;52.202;9.876;2023-03-01T06:07:20;2.80;;;2.33;;
13672;SDS011;6909;52.202;9.876;2023-03-01T06:09:47;2.63;;;2.00;;
13672;SDS011;6909;52.202;9.876;2023-03-01T06:12:15;1.77;;;1.67;;
13672;SDS011;6909;52.202;9.876;2023-03-01T06:14:42;3.00;;;1.40;;
13672;SDS011;6909;52.202;9.876;2023-03-01T06:17:08;2.97;;;2.00;;
13672;SDS011;6909;52.202;9.876;2023-03-01T06:19:35;4.87;;;2.37;;
13672;SDS011;6909;52.202;9.876;2023-03-01T06:22:01;2.10;;;1.83;;
13672;SDS011;6909;52.202;9.876;2023-03-01T06:24:28;6.53;;;2.40;;
13672;SDS011;6909;52.202;9.876;2023-03-01T06:26:55;2.33;;;1.73;;
13672;SDS011;6909;52.202;9.876;2023-03-01T06:29:23;2.47;;;2.27;;
13672;SDS011;6909;52.202;9.876;2023-03-01T06:31:49;4.20;;;2.70;;
13672;SDS011;6909;52.202;9.876;2023-03-01T06:34:16;4.57;;;3.23;;
13672;SDS011;6909;52.202;9.876;2023-03-01T06:36:42;5.77;;;3.67;;
13672;SDS011;6909;52.202;9.876;2023-03-01T06:39:09;9.00;;;4.80;;
13672;SDS011;6909;52.202;9.876;2023-03-01T06:41:36;14.23;;;4.67;;
13672;SDS011;6909;52.202;9.876;2023-03-01T06:44:02;7.13;;;5.50;;
13672;SDS011;6909;52.202;9.876;2023-03-01T06:46:30;7.80;;;4.50;;
13672;SDS011;6909;52.202;9.876;2023-03-01T06:48:57;5.23;;;3.23;;
13672;SDS011;6909;52.202;9.876;2023-03-01T06:51:25;7.23;;;3.27;;
13672;SDS011;6909;52.202;9.876;2023-03-01T06:53:52;3.73;;;2.67;;
13672;SDS011;6909;52.202;9.876;2023-03-01T06:56:18;5.53;;;3.70;;
13672;SDS011;6909;52.202;9.876;2023-03-01T06:58:45;4.27;;;2.97;;
13672;SDS011;6909;52.202;9.876;2023-03-01T07:01:11;4.27;;;2.67;;
13672;SDS011;6909;52.202;9.876;2023-03-01T07:03:39;3.73;;;3.07;;
13672;SDS011;6909;52.202;9.876;2023-03-01T07:06:09;5.77;;;3.07;;
13672;SDS011;6909;52.202;9.876;2023-03-01T07:08:35;4.93;;;3.10;;
13672;SDS011;6909;52.202;9.876;2023-03-01T07:11:02;5.83;;;3.20;;
13672;SDS011;6909;52.202;9.876;2023-03-01T07:13:29;4.73;;;3.40;;
13672;SDS011;6909;52.202;9.876;2023-03-01T07:15:55;3.73;;;3.03;;
13672;SDS011;6909;52.202;9.876;2023-03-01T07:18:22;4.80;;;2.80;;
13672;SDS011;6909;52.202;9.876;2023-03-01T07:20:50;4.97;;;3.30;;
13672;SDS011;6909;52.202;9.876;2023-03-01T07:23:17;4.33;;;3.63;;
13672;SDS011;6909;52.202;9.876;2023-03-01T07:25:44;4.43;;;3.07;;
13672;SDS011;6909;52.202;9.876;2023-03-01T07:28:10;6.17;;;3.53;;
13672;SDS011;6909;52.202;9.876;2023-03-01T07:30:37;4.50;;;3.70;;
13672;SDS011;6909;52.202;9.876;2023-03-01T07:33:05;4.60;;;3.50;;
13672;SDS011;6909;52.202;9.876;2023-03-01T07:35:32;5.77;;;3.77;;
13672;SDS011;6909;52.202;9.876;2023-03-01T07:38:00;5.23;;;3.77;;
13672;SDS011;6909;52.202;9.876;2023-03-01T07:40:27;5.77;;;3.63;;
13672;SDS011;6909;52.202;9.876;2023-03-01T07:42:55;4.93;;;3.87;;
13672;SDS011;6909;52.202;9.876;2023-03-01T07:45:21;7.30;;;3.80;;
13672;SDS011;6909;52.202;9.876;2023-03-01T07:47:49;5.37;;;3.27;;
13672;SDS011;6909;52.202;9.876;2023-03-01T07:50:16;4.47;;;3.33;;
13672;SDS011;6909;52.202;9.876;2023-03-01T07:52:44;5.30;;;3.27;;
13672;SDS011;6909;52.202;9.876;2023-03-01T07:55:13;5.27;;;3.93;;
13672;SDS011;6909;52.202;9.876;2023-03-01T07:57:40;7.10;;;3.90;;
13672;SDS011;6909;52.202;9.876;2023-03-01T08:00:09;5.43;;;3.70;;
13672;SDS011;6909;52.202;9.876;2023-03-01T08:02:37;5.80;;;3.53;;
13672;SDS011;6909;52.202;9.876;2023-03-01T08:05:05;4.37;;;2.93;;
13672;SDS011;6909;52.202;9.876;2023-03-01T08:07:32;6.07;;;4.00;;
13672;SDS011;6909;52.202;9.876;2023-03-01T08:09:59;5.13;;;4.00;;
13672;SDS011;6909;52.202;9.876;2023-03-01T08:12:27;6.20;;;3.97;;
13672;SDS011;6909;52.202;9.876;2023-03-01T08:14:53;5.33;;;3.83;;
13672;SDS011;6909;52.202;9.876;2023-03-01T08:17:20;5.63;;;3.87;;
13672;SDS011;6909;52.202;9.876;2023-03-01T08:19:47;5.87;;;4.20;;
13672;SDS011;6909;52.202;9.876;2023-03-01T08:22:13;5.53;;;4.10;;
13672;SDS011;6909;52.202;9.876;2023-03-01T08:24:40;5.43;;;4.03;;
13672;SDS011;6909;52.202;9.876;2023-03-01T08:27:07;6.63;;;3.90;;
13672;SDS011;6909;52.202;9.876;2023-03-01T08:29:35;5.60;;;3.90;;
13672;SDS011;6909;52.202;9.876;2023-03-01T08:32:01;5.37;;;4.13;;
13672;SDS011;6909;52.202;9.876;2023-03-01T08:34:28;9.13;;;4.03;;
13672;SDS011;6909;52.202;9.876;2023-03-01T08:36:56;8.00;;;4.07;;
13672;SDS011;6909;52.202;9.876;2023-03-01T08:39:23;4.20;;;3.53;;
13672;SDS011;6909;52.202;9.876;2023-03-01T08:41:50;6.43;;;3.90;;
13672;SDS011;6909;52.202;9.876;2023-03-01T08:44:16;5.03;;;3.87;;
13672;SDS011;6909;52.202;9.876;2023-03-01T08:46:44;6.83;;;3.10;;
13672;SDS011;6909;52.202;9.876;2023-03-01T08:49:12;4.43;;;3.43;;
13672;SDS011;6909;52.202;9.876;2023-03-01T08:51:40;7.53;;;4.67;;
13672;SDS011;6909;52.202;9.876;2023-03-01T08:54:09;5.53;;;3.70;;
13672;SDS011;6909;52.202;9.876;2023-03-01T08:56:38;5.27;;;3.60;;
13672;SDS011;6909;52.202;9.876;2023-03-01T08:59:04;5.53;;;4.00;;
13672;SDS011;6909;52.202;9.876;2023-03-01T09:01:31;4.73;;;3.90;;
13672;SDS011;6909;52.202;9.876;2023-03-01T09:03:59;6.00;;;3.50;;
13672;SDS011;6909;52.202;9.876;2023-03-01T09:06:26;5.23;;;3.37;;
13672;SDS011;6909;52.202;9.876;2023-03-01T09:08:52;5.50;;;3.73;;
13672;SDS011;6909;52.202;9.876;2023-03-01T09:11:20;5.20;;;3.70;;
13672;SDS011;6909;52.202;9.876;2023-03-01T09:13:48;3.67;;;3.33;;
13672;SDS011;6909;52.202;9.876;2023-03-01T09:16:16;7.00;;;3.57;;
13672;SDS011;6909;52.202;9.876;2023-03-01T09:18:44;3.93;;;2.90;;
13672;SDS011;6909;52.202;9.876;2023-03-01T09:21:14;4.27;;;3.43;;
13672;SDS011;6909;52.202;9.876;2023-03-01T09:23:43;5.50;;;3.50;;
13672;SDS011;6909;52.202;9.876;2023-03-01T09:26:12;6.43;;;3.63;;
13672;SDS011;6909;52.202;9.876;2023-03-01T09:28:41;6.63;;;3.63;;
13672;SDS011;6909;52.202;9.876;2023-03-01T09:31:09;4.53;;;3.50;;
13672;SDS011;6909;52.202;9.876;2023-03-01T09:33:37;4.03;;;3.10;;
13672;SDS011;6909;52.202;9.876;2023-03-01T09:36:05;4.03;;;2.67;;
13672;SDS011;6909;52.202;9.876;2023-03-01T09:38:35;5.63;;;3.67;;
13672;SDS011;6909;52.202;9.876;2023-03-01T09:41:02;6.87;;;3.20;;
13672;SDS011;6909;52.202;9.876;2023-03-01T09:43:37;4.60;;;3.40;;
13672;SDS011;6909;52.202;9.876;2023-03-01T09:46:10;4.07;;;3.43;;
13672;SDS011;6909;52.202;9.876;2023-03-01T09:48:42;9.53;;;3.40;;
13672;SDS011;6909;52.202;9.876;2023-03-01T09:51:12;3.17;;;2.80;;
13672;SDS011;6909;52.202;9.876;2023-03-01T09:53:44;4.43;;;3.00;;
13672;SDS011;6909;52.202;9.876;2023-03-01T09:56:12;9.70;;;2.97;;
13672;SDS011;6909;52.202;9.876;2023-03-01T09:58:47;4.33;;;3.20;;
13672;SDS011;6909;52.202;9.876;2023-03-01T10:01:23;7.10;;;2.97;;
13672;SDS011;6909;52.202;9.876;2023-03-01T10:06:58;4.73;;;2.70;;
13672;SDS011;6909;52.202;9.876;2023-03-01T10:09:35;4.37;;;2.50;;
13672;SDS011;6909;52.202;9.876;2023-03-01T10:12:04;5.80;;;2.50;;
13672;SDS011;6909;52.202;9.876;2023-03-01T10:14:36;4.83;;;2.57;;
13672;SDS011;6909;52.202;9.876;2023-03-01T10:17:10;5.37;;;2.37;;
13672;SDS011;6909;52.202;9.876;2023-03-01T10:19:44;6.43;;;2.50;;
13672;SDS011;6909;52.202;9.876;2023-03-01T10:22:13;4.57;;;2.77;;
13672;SDS011;6909;52.202;9.876;2023-03-01T10:24:47;5.03;;;2.20;;
13672;SDS011;6909;52.202;9.876;2023-03-01T10:27:17;4.88;;;3.67;;
13672;SDS011;6909;52.202;9.876;2023-03-01T10:29:49;4.17;;;2.30;;
13672;SDS011;6909;52.202;9.876;2023-03-01T10:32:23;4.60;;;2.77;;
13672;SDS011;6909;52.202;9.876;2023-03-01T10:34:51;4.47;;;2.57;;
13672;SDS011;6909;52.202;9.876;2023-03-01T10:37:18;5.13;;;2.50;;
13672;SDS011;6909;52.202;9.876;2023-03-01T10:39:58;2.73;;;1.57;;
13672;SDS011;6909;52.202;9.876;2023-03-01T10:42:30;4.10;;;2.03;;
13672;SDS011;6909;52.202;9.876;2023-03-01T10:44:58;2.00;;;1.70;;
13672;SDS011;6909;52.202;9.876;2023-03-01T10:47:42;2.33;;;1.30;;
13672;SDS011;6909;52.202;9.876;2023-03-01T10:50:17;3.03;;;1.67;;
13672;SDS011;6909;52.202;9.876;2023-03-01T10:52:55;2.70;;;2.20;;
13672;SDS011;6909;52.202;9.876;2023-03-01T10:55:26;4.17;;;2.00;;
13672;SDS011;6909;52.202;9.876;2023-03-01T10:58:07;1.90;;;1.47;;
13672;SDS011;6909;52.202;9.876;2023-03-01T11:00:45;1.37;;;1.27;;
13672;SDS011;6909;52.202;9.876;2023-03-01T11:03:15;3.63;;;1.60;;
13672;SDS011;6909;52.202;9.876;2023-03-01T11:05:51;1.40;;;1.30;;
13672;SDS011;6909;52.202;9.876;2023-03-01T11:08:30;2.90;;;2.13;;
13672;SDS011;6909;52.202;9.876;2023-03-01T11:11:20;2.40;;;1.53;;
13672;SDS011;6909;52.202;9.876;2023-03-01T11:13:51;2.80;;;2.10;;
13672;SDS011;6909;52.202;9.876;2023-03-01T11:16:24;1.80;;;1.60;;
13672;SDS011;6909;52.202;9.876;2023-03-01T11:18:57;2.60;;;1.97;;
13672;SDS011;6909;52.202;9.876;2023-03-01T11:21:26;2.20;;;1.63;;
13672;SDS011;6909;52.202;9.876;2023-03-01T11:23:56;4.67;;;2.00;;
13672;SDS011;6909;52.202;9.876;2023-03-01T11:26:27;1.93;;;1.33;;
13672;SDS011;6909;52.202;9.876;2023-03-01T11:28:58;3.57;;;1.90;;
13672;SDS011;6909;52.202;9.876;2023-03-01T11:31:30;2.77;;;1.50;;
13672;SDS011;6909;52.202;9.876;2023-03-01T11:33:59;2.20;;;1.47;;
13672;SDS011;6909;52.202;9.876;2023-03-01T11:36:32;2.30;;;1.70;;
13672;SDS011;6909;52.202;9.876;2023-03-01T11:39:03;1.83;;;1.23;;
13672;SDS011;6909;52.202;9.876;2023-03-01T11:41:42;2.87;;;1.87;;
13672;SDS011;6909;52.202;9.876;2023-03-01T11:44:13;1.00;;;0.83;;
13672;SDS011;6909;52.202;9.876;2023-03-01T11:46:50;3.23;;;1.73;;
13672;SDS011;6909;52.202;9.876;2023-03-01T11:49:47;2.67;;;1.57;;
13672;SDS011;6909;52.202;9.876;2023-03-01T11:52:29;2.93;;;1.80;;
13672;SDS011;6909;52.202;9.876;2023-03-01T11:58:13;3.17;;;2.07;;
13672;SDS011;6909;52.202;9.876;2023-03-01T12:01:06;3.07;;;1.90;;
13672;SDS011;6909;52.202;9.876;2023-03-01T12:03:50;3.00;;;1.73;;
13672;SDS011;6909;52.202;9.876;2023-03-01T12:06:39;2.90;;;2.30;;
13672;SDS011;6909;52.202;9.876;2023-03-01T12:09:36;4.57;;;1.33;;
13672;SDS011;6909;52.202;9.876;2023-03-01T12:12:22;3.43;;;1.80;;
13672;SDS011;6909;52.202;9.876;2023-03-01T12:15:00;3.10;;;1.73;;
13672;SDS011;6909;52.202;9.876;2023-03-01T12:17:58;4.17;;;1.60;;
13672;SDS011;6909;52.202;9.876;2023-03-01T12:20:40;4.80;;;1.23;;
13672;SDS011;6909;52.202;9.876;2023-03-01T12:23:24;1.73;;;1.37;;
13672;SDS011;6909;52.202;9.876;2023-03-01T12:26:06;3.27;;;1.83;;
13672;SDS011;6909;52.202;9.876;2023-03-01T12:28:45;2.57;;;1.90;;
13672;SDS011;6909;52.202;9.876;2023-03-01T12:34:35;2.97;;;1.60;;
13672;SDS011;6909;52.202;9.876;2023-03-01T12:37:20;2.43;;;1.60;;
13672;SDS011;6909;52.202;9.876;2023-03-01T12:39:56;4.00;;;1.50;;
13672;SDS011;6909;52.202;9.876;2023-03-01T12:42:40;1.50;;;1.20;;
13672;SDS011;6909;52.202;9.876;2023-03-01T12:45:23;2.43;;;1.57;;
13672;SDS011;6909;52.202;9.876;2023-03-01T12:48:07;1.53;;;1.30;;
13672;SDS011;6909;52.202;9.876;2023-03-01T12:50:44;3.20;;;1.97;;
13672;SDS011;6909;52.202;9.876;2023-03-01T12:53:17;2.50;;;1.50;;
13672;SDS011;6909;52.202;9.876;2023-03-01T12:55:48;1.90;;;1.47;;
13672;SDS011;6909;52.202;9.876;2023-03-01T12:58:21;3.63;;;1.80;;
13672;SDS011;6909;52.202;9.876;2023-03-01T13:00:59;2.37;;;1.70;;
13672;SDS011;6909;52.202;9.876;2023-03-01T13:03:35;2.63;;;1.63;;
13672;SDS011;6909;52.202;9.876;2023-03-01T13:06:15;3.83;;;1.50;;
13672;SDS011;6909;52.202;9.876;2023-03-01T13:08:47;6.47;;;1.73;;
13672;SDS011;6909;52.202;9.876;2023-03-01T13:11:22;2.17;;;1.20;;
13672;SDS011;6909;52.202;9.876;2023-03-01T13:13:49;1.83;;;1.27;;
13672;SDS011;6909;52.202;9.876;2023-03-01T13:16:20;2.60;;;1.40;;
13672;SDS011;6909;52.202;9.876;2023-03-01T13:19:10;2.50;;;1.53;;
13672;SDS011;6909;52.202;9.876;2023-03-01T13:21:40;3.27;;;1.67;;
13672;SDS011;6909;52.202;9.876;2023-03-01T13:27:09;1.47;;;1.07;;
13672;SDS011;6909;52.202;9.876;2023-03-01T13:29:43;5.37;;;1.37;;
13672;SDS011;6909;52.202;9.876;2023-03-01T13:32:18;2.60;;;1.60;;
13672;SDS011;6909;52.202;9.876;2023-03-01T13:34:51;1.70;;;1.20;;
13672;SDS011;6909;52.202;9.876;2023-03-01T13:37:23;2.83;;;1.50;;
13672;SDS011;6909;52.202;9.876;2023-03-01T13:40:03;4.17;;;1.40;;
13672;SDS011;6909;52.202;9.876;2023-03-01T13:42:53;2.40;;;1.50;;
13672;SDS011;6909;52.202;9.876;2023-03-01T13:45:22;2.20;;;1.27;;
13672;SDS011;6909;52.202;9.876;2023-03-01T13:47:58;3.50;;;1.83;;
13672;SDS011;6909;52.202;9.876;2023-03-01T13:50:28;2.00;;;1.57;;
13672;SDS011;6909;52.202;9.876;2023-03-01T13:52:59;1.20;;;1.10;;
13672;SDS011;6909;52.202;9.876;2023-03-01T13:55:34;2.80;;;1.23;;
13672;SDS011;6909;52.202;9.876;2023-03-01T13:58:14;1.67;;;1.13;;
13672;SDS011;6909;52.202;9.876;2023-03-01T14:00:44;3.23;;;1.53;;
13672;SDS011;6909;52.202;9.876;2023-03-01T14:03:12;1.77;;;1.20;;
13672;SDS011;6909;52.202;9.876;2023-03-01T14:05:41;1.20;;;1.07;;
13672;SDS011;6909;52.202;9.876;2023-03-01T14:08:19;2.30;;;1.30;;
13672;SDS011;6909;52.202;9.876;2023-03-01T14:10:51;3.13;;;1.07;;
13672;SDS011;6909;52.202;9.876;2023-03-01T14:13:31;1.20;;;1.10;;
13672;SDS011;6909;52.202;9.876;2023-03-01T14:16:15;1.93;;;1.20;;
13672;SDS011;6909;52.202;9.876;2023-03-01T14:18:51;1.50;;;1.30;;
13672;SDS011;6909;52.202;9.876;2023-03-01T14:21:25;1.40;;;1.30;;
13672;SDS011;6909;52.202;9.876;2023-03-01T14:23:52;2.73;;;1.40;;
13672;SDS011;6909;52.202;9.876;2023-03-01T14:26:20;1.50;;;1.40;;
13672;SDS011;6909;52.202;9.876;2023-03-01T14:28:49;1.30;;;1.20;;
13672;SDS011;6909;52.202;9.876;2023-03-01T14:31:30;2.70;;;1.27;;
13672;SDS011;6909;52.202;9.876;2023-03-01T14:34:00;1.67;;;1.23;;
13672;SDS011;6909;52.202;9.876;2023-03-01T14:36:28;1.87;;;1.60;;
13672;SDS011;6909;52.202;9.876;2023-03-01T14:38:57;1.93;;;1.07;;
13672;SDS011;6909;52.202;9.876;2023-03-01T14:41:29;3.17;;;1.30;;
13672;SDS011;6909;52.202;9.876;2023-03-01T14:44:00;0.90;;;0.83;;
13672;SDS011;6909;52.202;9.876;2023-03-01T14:46:30;1.90;;;1.37;;
13672;SDS011;6909;52.202;9.876;2023-03-01T14:49:01;2.27;;;1.30;;
13672;SDS011;6909;52.202;9.876;2023-03-01T14:51:29;2.47;;;1.17;;
13672;SDS011;6909;52.202;9.876;2023-03-01T14:53:56;2.10;;;1.20;;
13672;SDS011;6909;52.202;9.876;2023-03-01T14:56:23;1.03;;;0.93;;
13672;SDS011;6909;52.202;9.876;2023-03-01T14:58:53;3.63;;;1.03;;
13672;SDS011;6909;52.202;9.876;2023-03-01T15:01:25;1.53;;;1.17;;
13672;SDS011;6909;52.202;9.876;2023-03-01T15:03:54;1.57;;;1.10;;
13672;SDS011;6909;52.202;9.876;2023-03-01T15:06:21;6.73;;;1.27;;
13672;SDS011;6909;52.202;9.876;2023-03-01T15:08:50;2.80;;;1.63;;
13672;SDS011;6909;52.202;9.876;2023-03-01T15:11:20;1.37;;;1.00;;
13672;SDS011;6909;52.202;9.876;2023-03-01T15:13:49;2.57;;;1.20;;
13672;SDS011;6909;52.202;9.876;2023-03-01T15:16:16;2.67;;;1.10;;
13672;SDS011;6909;52.202;9.876;2023-03-01T15:18:47;3.90;;;1.40;;
13672;SDS011;6909;52.202;9.876;2023-03-01T15:21:17;1.13;;;0.97;;
13672;SDS011;6909;52.202;9.876;2023-03-01T15:23:48;5.07;;;1.07;;
13672;SDS011;6909;52.202;9.876;2023-03-01T15:26:21;1.97;;;1.43;;
13672;SDS011;6909;52.202;9.876;2023-03-01T15:28:50;1.43;;;0.90;;
13672;SDS011;6909;52.202;9.876;2023-03-01T15:31:18;1.23;;;0.93;;